createdAt,value
2022-10-19T00:01:04.866Z,102942.88
2022-10-19T00:03:32.356Z,102950.59
2022-10-19T00:05:59.228Z,102949.53
2022-10-19T00:08:25.704Z,102945.81
2022-10-19T00:10:52.095Z,102946.56
2022-10-19T00:13:18.539Z,102944.78
2022-10-19T00:15:45.160Z,102940.19
2022-10-19T00:18:11.502Z,102933.00
2022-10-19T00:20:37.872Z,102932.75
2022-10-19T00:23:04.333Z,102926.38
2022-10-19T00:25:30.743Z,102926.06
2022-10-19T00:27:57.293Z,102933.81
2022-10-19T00:30:23.636Z,102932.59
2022-10-19T00:32:50.086Z,102933.97
2022-10-19T00:35:16.477Z,102933.63
2022-10-19T00:37:42.836Z,102935.31
2022-10-19T00:40:09.863Z,102929.94
2022-10-19T00:42:36.396Z,102931.59
2022-10-19T00:45:11.313Z,102929.66
2022-10-19T00:47:38.224Z,102934.75
2022-10-19T00:50:05.587Z,102928.63
2022-10-19T00:52:32.571Z,102929.38
2022-10-19T00:54:59.733Z,102931.78
2022-10-19T00:57:32.048Z,102929.25
2022-10-19T01:00:00.722Z,102936.91
2022-10-19T01:02:27.228Z,102928.00
2022-10-19T01:04:53.897Z,102930.69
2022-10-19T01:07:21.345Z,102928.06
2022-10-19T01:09:47.728Z,102927.16
2022-10-19T01:13:07.244Z,102923.56
2022-10-19T01:15:46.927Z,102922.41
2022-10-19T01:18:27.886Z,102922.19
2022-10-19T01:21:09.659Z,102919.16
2022-10-19T01:23:44.768Z,102917.06
2022-10-19T01:26:39.886Z,102915.25
2022-10-19T01:29:43.749Z,102917.06
2022-10-19T01:32:21.175Z,102917.81
2022-10-19T01:34:55.799Z,102917.69
2022-10-19T01:37:35.787Z,102920.31
2022-10-19T01:40:15.041Z,102918.59
2022-10-19T01:42:49.583Z,102913.09
2022-10-19T01:45:29.722Z,102911.19
2022-10-19T01:48:03.388Z,102910.13
2022-10-19T01:50:38.909Z,102912.47
2022-10-19T01:53:09.282Z,102913.88
2022-10-19T01:55:40.074Z,102900.63
2022-10-19T01:58:10.136Z,102902.38
2022-10-19T02:00:39.879Z,102905.81
2022-10-19T02:03:07.200Z,102917.13
2022-10-19T02:05:35.927Z,102912.75
2022-10-19T02:08:12.021Z,102917.88
2022-10-19T02:10:42.501Z,102911.50
2022-10-19T02:13:10.463Z,102911.31
2022-10-19T02:15:40.814Z,102902.47
2022-10-19T02:18:09.748Z,102909.34
2022-10-19T02:20:37.164Z,102904.94
2022-10-19T02:23:07.745Z,102897.09
2022-10-19T02:25:34.677Z,102889.72
2022-10-19T02:28:02.658Z,102890.72
2022-10-19T02:30:29.065Z,102895.13
2022-10-19T02:32:55.491Z,102895.13
2022-10-19T02:35:22.894Z,102898.44
2022-10-19T02:37:49.525Z,102891.31
2022-10-19T02:40:16.218Z,102889.22
2022-10-19T02:42:53.974Z,102887.47
2022-10-19T02:45:33.619Z,102887.44
2022-10-19T02:48:10.153Z,102888.97
2022-10-19T02:50:38.521Z,102886.31
2022-10-19T02:53:04.830Z,102886.97
2022-10-19T02:55:31.285Z,102881.63
2022-10-19T02:57:57.835Z,102881.50
2022-10-19T03:00:24.203Z,102883.97
2022-10-19T03:02:50.551Z,102887.31
2022-10-19T03:05:17.000Z,102881.56
2022-10-19T03:07:43.351Z,102894.34
2022-10-19T03:10:10.017Z,102884.63
2022-10-19T03:12:36.385Z,102883.88
2022-10-19T03:15:03.567Z,102877.75
2022-10-19T03:17:29.930Z,102873.56
2022-10-19T03:19:56.322Z,102870.19
2022-10-19T03:22:22.688Z,102878.03
2022-10-19T03:24:55.111Z,102874.59
2022-10-19T03:27:21.577Z,102875.34
2022-10-19T03:29:47.894Z,102866.44
2022-10-19T03:32:14.195Z,102864.38
2022-10-19T03:34:40.549Z,102867.97
2022-10-19T03:37:08.500Z,102863.50
2022-10-19T03:39:34.981Z,102860.88
2022-10-19T03:42:01.516Z,102867.66
2022-10-19T03:44:27.834Z,102867.50
2022-10-19T03:46:55.604Z,102865.56
2022-10-19T03:49:25.678Z,102862.75
2022-10-19T03:51:52.051Z,102864.34
2022-10-19T03:54:18.465Z,102858.88
2022-10-19T03:56:44.972Z,102864.09
2022-10-19T03:59:14.485Z,102858.97
2022-10-19T04:01:45.001Z,102858.38
2022-10-19T04:04:19.323Z,102852.16
2022-10-19T04:06:47.990Z,102856.44
2022-10-19T04:09:17.159Z,102856.44
2022-10-19T04:11:43.942Z,102855.44
2022-10-19T04:14:18.944Z,102855.94
2022-10-19T04:16:53.677Z,102853.91
2022-10-19T04:19:23.115Z,102853.91
2022-10-19T04:21:52.377Z,102853.59
2022-10-19T04:24:19.267Z,102853.94
2022-10-19T04:26:50.919Z,102850.94
2022-10-19T04:29:19.178Z,102859.56
2022-10-19T04:31:50.667Z,102866.63
2022-10-19T04:34:18.679Z,102869.38
2022-10-19T04:36:45.434Z,102863.16
2022-10-19T04:39:11.924Z,102865.00
2022-10-19T04:41:38.686Z,102863.00
2022-10-19T04:44:11.424Z,102862.19
2022-10-19T04:46:38.504Z,102863.16
2022-10-19T04:49:06.616Z,102869.38
2022-10-19T04:51:33.181Z,102867.34
2022-10-19T04:54:00.119Z,102860.16
2022-10-19T04:56:27.896Z,102861.22
2022-10-19T04:58:58.410Z,102861.22
2022-10-19T05:01:26.541Z,102855.16
2022-10-19T05:04:00.533Z,102859.25
2022-10-19T05:06:27.848Z,102863.34
2022-10-19T05:08:54.696Z,102864.00
2022-10-19T05:11:21.414Z,102845.63
2022-10-19T05:13:48.759Z,102847.59
2022-10-19T05:16:18.910Z,102849.13
2022-10-19T05:18:52.749Z,102852.56
2022-10-19T05:21:20.592Z,102854.13
2022-10-19T05:23:46.965Z,102853.22
2022-10-19T05:26:17.298Z,102846.19
2022-10-19T05:28:56.412Z,102835.16
2022-10-19T05:31:25.542Z,102837.69
2022-10-19T05:33:52.017Z,102847.34
2022-10-19T05:36:27.501Z,102846.34
2022-10-19T05:38:56.291Z,102845.31
2022-10-19T05:41:23.599Z,102854.66
2022-10-19T05:43:54.702Z,102848.53
2022-10-19T05:46:21.421Z,102846.81
2022-10-19T05:48:48.028Z,102835.38
2022-10-19T05:51:17.592Z,102849.19
2022-10-19T05:53:44.524Z,102846.56
2022-10-19T05:56:21.062Z,102842.06
2022-10-19T05:58:48.969Z,102835.88
2022-10-19T06:01:16.397Z,102836.78
2022-10-19T06:03:43.336Z,102840.88
2022-10-19T06:06:10.390Z,102841.19
2022-10-19T06:08:38.239Z,102833.13
2022-10-19T06:11:14.103Z,102842.69
2022-10-19T06:13:42.285Z,102839.09
2022-10-19T06:16:12.832Z,102837.25
2022-10-19T06:18:40.059Z,102846.97
2022-10-19T06:21:27.357Z,102839.25
2022-10-19T06:23:58.634Z,102836.47
2022-10-19T06:26:26.354Z,102844.31
2022-10-19T06:28:56.702Z,102858.16
2022-10-19T06:31:23.231Z,102858.09
2022-10-19T06:33:49.853Z,102856.50
2022-10-19T06:36:25.192Z,102850.44
2022-10-19T06:38:53.114Z,102850.69
2022-10-19T06:41:20.189Z,102850.53
2022-10-19T06:43:53.977Z,102837.94
2022-10-19T06:46:23.377Z,102837.59
2022-10-19T06:48:55.357Z,102837.84
2022-10-19T06:51:22.773Z,102840.94
2022-10-19T06:53:52.860Z,102827.06
2022-10-19T06:56:24.506Z,102822.13
2022-10-19T06:58:50.993Z,102823.09
2022-10-19T07:01:17.404Z,102820.50
2022-10-19T07:03:43.858Z,102829.22
2022-10-19T07:06:12.014Z,102836.59
2022-10-19T07:08:39.959Z,102833.53
2022-10-19T07:11:10.751Z,102828.59
2022-10-19T07:13:37.860Z,102829.88
2022-10-19T07:16:06.919Z,102825.91
2022-10-19T07:18:35.224Z,102826.41
2022-10-19T07:21:03.392Z,102832.09
2022-10-19T07:23:34.721Z,102826.28
2022-10-19T07:26:12.116Z,102843.41
2022-10-19T07:28:40.794Z,102841.97
2022-10-19T07:31:09.892Z,102833.72
2022-10-19T07:33:39.949Z,102834.31
2022-10-19T07:36:09.304Z,102828.84
2022-10-19T07:38:36.628Z,102837.09
2022-10-19T07:41:12.732Z,102836.78
2022-10-19T07:43:40.041Z,102845.91
2022-10-19T07:46:08.778Z,102842.56
2022-10-19T07:48:35.640Z,102849.91
2022-10-19T07:51:05.227Z,102837.00
2022-10-19T07:53:31.821Z,102830.47
2022-10-19T07:56:07.001Z,102827.19
2022-10-19T07:58:34.255Z,102838.03
2022-10-19T08:01:02.837Z,102844.22
2022-10-19T08:04:14.203Z,102840.16
2022-10-19T08:06:18.960Z,102844.00
2022-10-19T08:08:46.402Z,102841.59
2022-10-19T08:11:19.883Z,102845.31
2022-10-19T08:13:46.820Z,102849.16
2022-10-19T08:16:32.656Z,102843.28
2022-10-19T08:19:02.350Z,102831.38
2022-10-19T08:21:30.312Z,102821.53
2022-10-19T08:23:57.202Z,102835.44
2022-10-19T08:26:27.349Z,102836.63
2022-10-19T08:28:53.700Z,102838.63
2022-10-19T08:31:22.167Z,102839.78
2022-10-19T08:33:51.531Z,102834.97
2022-10-19T08:36:21.726Z,102830.94
2022-10-19T08:38:49.109Z,102823.59
2022-10-19T08:41:23.119Z,102831.19
2022-10-19T08:44:15.734Z,102817.78
2022-10-19T08:47:07.706Z,102766.22
2022-10-19T08:49:35.022Z,102815.28
2022-10-19T08:52:12.170Z,102807.94
2022-10-19T08:54:54.783Z,102820.75
2022-10-19T08:58:02.014Z,102806.72
2022-10-19T09:03:27.087Z,102802.69
2022-10-19T09:06:24.698Z,102801.25
2022-10-19T09:08:54.009Z,102787.56
2022-10-19T09:11:25.851Z,102785.81
2022-10-19T09:14:06.390Z,102777.81
2022-10-19T09:16:34.875Z,102782.91
2022-10-19T09:19:01.985Z,102787.50
2022-10-19T09:21:55.484Z,102779.50
2022-10-19T09:24:48.099Z,102777.16
2022-10-19T09:27:21.864Z,102768.63
2022-10-19T09:29:55.096Z,102762.88
2022-10-19T09:32:30.936Z,102777.47
2022-10-19T09:35:02.231Z,102758.34
2022-10-19T09:40:01.400Z,102754.19
2022-10-19T09:42:32.985Z,102754.22
2022-10-19T09:45:02.824Z,102740.81
2022-10-19T09:47:40.605Z,102741.69
2022-10-19T09:50:18.240Z,102742.53
2022-10-19T09:52:52.699Z,102740.72
2022-10-19T09:55:39.050Z,102736.19
2022-10-19T09:58:19.600Z,102739.69
2022-10-19T10:00:51.249Z,102743.19
2022-10-19T10:03:39.337Z,102743.16
2022-10-19T10:06:12.340Z,102736.00
2022-10-19T10:08:46.870Z,102736.91
2022-10-19T10:11:22.322Z,102735.97
2022-10-19T10:13:52.406Z,102733.34
2022-10-19T10:16:22.194Z,102732.41
2022-10-19T10:18:55.363Z,102747.31
2022-10-19T10:21:35.678Z,102734.66
2022-10-19T10:24:23.117Z,102742.75
2022-10-19T10:26:54.718Z,102739.31
2022-10-19T10:29:23.743Z,102748.38
2022-10-19T10:31:58.539Z,102751.22
2022-10-19T10:34:55.853Z,102743.28
2022-10-19T10:37:28.375Z,102742.59
2022-10-19T10:40:01.903Z,102742.63
2022-10-19T10:42:37.795Z,102728.38
2022-10-19T10:45:05.831Z,102721.28
2022-10-19T10:47:32.551Z,102715.94
2022-10-19T10:50:06.447Z,102711.44
2022-10-19T10:52:33.566Z,102699.72
2022-10-19T10:55:02.306Z,102696.13
2022-10-19T10:57:35.427Z,102697.16
2022-10-19T11:00:08.037Z,102690.81
2022-10-19T11:02:56.411Z,102691.69
2022-10-19T11:05:28.588Z,102686.31
2022-10-19T11:08:05.864Z,102679.06
2022-10-19T11:10:41.601Z,102671.03
2022-10-19T11:13:21.327Z,102674.59
2022-10-19T11:16:01.317Z,102667.44
2022-10-19T11:21:30.944Z,102656.59
2022-10-19T11:24:08.576Z,102645.88
2022-10-19T11:27:12.447Z,102648.56
2022-10-19T11:30:00.375Z,102642.34
2022-10-19T11:32:52.586Z,102633.41
2022-10-19T11:35:55.649Z,102613.88
2022-10-19T11:38:31.265Z,102608.47
2022-10-19T11:41:18.552Z,102599.69
2022-10-19T11:44:11.879Z,102611.22
2022-10-19T11:46:55.179Z,102597.13
2022-10-19T11:49:35.812Z,102591.91
2022-10-19T11:52:48.522Z,102589.25
2022-10-19T11:55:38.109Z,102579.47
2022-10-19T11:58:28.114Z,102577.63
2022-10-19T12:01:12.684Z,102578.53
2022-10-19T12:03:48.085Z,102565.38
2022-10-19T12:06:14.404Z,102564.66
2022-10-19T12:09:13.719Z,102558.44
2022-10-19T12:11:42.990Z,102551.31
2022-10-19T12:14:14.741Z,102551.22
2022-10-19T12:16:45.562Z,102547.72
2022-10-19T12:19:19.600Z,102530.00
2022-10-19T12:21:47.602Z,102521.09
2022-10-19T12:24:19.293Z,102509.53
2022-10-19T12:26:46.832Z,102515.78
2022-10-19T12:29:17.834Z,102519.31
2022-10-19T12:31:46.070Z,102523.78
2022-10-19T12:34:32.590Z,102511.34
2022-10-19T12:37:03.727Z,102503.38
2022-10-19T12:39:50.369Z,102500.75
2022-10-19T12:42:46.582Z,102496.28
2022-10-19T12:45:28.054Z,102495.47
2022-10-19T12:48:13.925Z,102495.47
2022-10-19T12:50:49.148Z,102487.56
2022-10-19T12:53:41.012Z,102481.34
2022-10-19T12:56:23.542Z,102472.44
2022-10-19T12:58:56.540Z,102476.84
2022-10-19T13:01:31.288Z,102455.59
2022-10-19T13:04:11.410Z,102453.88
2022-10-19T13:06:46.215Z,102449.44
2022-10-19T13:09:31.693Z,102446.78
2022-10-19T13:12:14.779Z,102440.59
2022-10-19T13:14:44.142Z,102437.03
2022-10-19T13:17:11.159Z,102437.91
2022-10-19T13:19:37.598Z,102429.00
2022-10-19T13:22:26.532Z,102431.69
2022-10-19T13:25:35.403Z,102427.22
2022-10-19T13:28:07.652Z,102423.72
2022-10-19T13:30:41.673Z,102421.06
2022-10-19T13:33:47.567Z,102415.78
2022-10-19T13:36:14.173Z,102420.25
2022-10-19T13:38:42.058Z,102406.03
2022-10-19T13:41:36.797Z,102399.88
2022-10-19T13:44:09.033Z,102402.53
2022-10-19T13:46:56.989Z,102407.88
2022-10-19T13:49:57.409Z,102414.97
2022-10-19T13:53:01.159Z,102417.63
2022-10-19T13:55:46.556Z,102415.84
2022-10-19T13:58:22.860Z,102409.66
2022-10-19T14:01:23.273Z,102416.75
2022-10-19T14:03:55.582Z,102406.13
2022-10-19T14:06:27.647Z,102407.00
2022-10-19T14:09:15.131Z,102400.78
2022-10-19T14:11:44.209Z,102405.22
2022-10-19T14:14:15.865Z,102409.63
2022-10-19T14:17:03.180Z,102407.81
2022-10-19T14:19:43.269Z,102416.72
2022-10-19T14:22:21.743Z,102409.59
2022-10-19T14:24:48.172Z,102422.91
2022-10-19T14:27:24.147Z,102414.03
2022-10-19T14:29:52.846Z,102419.34
2022-10-19T14:32:26.049Z,102414.03
2022-10-19T14:34:53.362Z,102410.47
2022-10-19T14:37:22.911Z,102408.69
2022-10-19T14:40:01.476Z,102398.91
2022-10-19T14:42:37.614Z,102394.47
2022-10-19T14:45:06.363Z,102390.00
2022-10-19T14:47:32.796Z,102382.00
2022-10-19T14:49:59.234Z,102382.88
2022-10-19T14:52:33.153Z,102372.16
2022-10-19T14:55:01.825Z,102369.50
2022-10-19T14:57:36.327Z,102370.38
2022-10-19T15:00:06.226Z,102371.25
2022-10-19T15:02:40.508Z,102366.75
2022-10-19T15:05:17.968Z,102368.56
2022-10-19T15:07:46.997Z,102352.56
2022-10-19T15:10:22.914Z,102351.66
2022-10-19T15:12:51.358Z,102348.09
2022-10-19T15:15:24.938Z,102343.56
2022-10-19T15:18:05.552Z,102346.16
2022-10-19T15:20:43.934Z,102344.41
2022-10-19T15:23:45.504Z,102342.63
2022-10-19T15:26:28.768Z,102327.50
2022-10-19T15:29:07.303Z,102315.97
2022-10-19T15:31:33.725Z,102325.59
2022-10-19T15:34:01.964Z,102314.06
2022-10-19T15:36:30.633Z,102317.56
2022-10-19T15:39:32.989Z,102316.72
2022-10-19T15:42:41.668Z,102304.31
2022-10-19T15:45:27.473Z,102305.09
2022-10-19T15:48:24.280Z,102305.00
2022-10-19T15:50:51.962Z,102304.94
2022-10-19T15:53:19.454Z,102307.59
2022-10-19T15:55:46.117Z,102303.97
2022-10-19T15:58:13.381Z,102304.78
2022-10-19T16:00:41.061Z,102294.09
2022-10-19T16:03:07.534Z,102280.78
2022-10-19T16:05:36.209Z,102277.19
2022-10-19T16:08:02.653Z,102273.66
2022-10-19T16:10:28.982Z,102268.28
2022-10-19T16:12:55.340Z,102265.56
2022-10-19T16:15:23.312Z,102261.13
2022-10-19T16:17:55.438Z,102255.75
2022-10-19T16:20:22.950Z,102255.72
2022-10-19T16:22:52.304Z,102258.28
2022-10-19T16:25:18.745Z,102259.06
2022-10-19T16:27:45.109Z,102259.00
2022-10-19T16:30:12.468Z,102252.72
2022-10-19T16:32:44.656Z,102256.16
2022-10-19T16:35:12.041Z,102254.34
2022-10-19T16:37:38.440Z,102260.50
2022-10-19T16:40:05.403Z,102265.75
2022-10-19T16:42:34.716Z,102264.00
2022-10-19T16:45:01.414Z,102256.03
2022-10-19T16:47:27.746Z,102249.75
2022-10-19T16:49:59.922Z,102244.44
2022-10-19T16:52:27.815Z,102237.34
2022-10-19T16:54:55.422Z,102232.03
2022-10-19T16:57:21.801Z,102233.78
2022-10-19T17:02:25.370Z,102218.50
2022-10-19T17:04:51.759Z,102230.88
2022-10-19T17:07:18.322Z,102221.88
2022-10-19T17:09:44.913Z,102233.28
2022-10-19T17:12:12.231Z,102208.31
2022-10-19T17:14:40.917Z,102222.41
2022-10-19T17:17:08.249Z,102216.16
2022-10-19T17:19:35.940Z,102222.31
2022-10-19T17:22:03.474Z,102231.09
2022-10-19T17:24:30.963Z,102234.53
2022-10-19T17:26:57.423Z,102232.69
2022-10-19T17:29:23.868Z,102223.75
2022-10-19T17:31:50.575Z,102211.28
2022-10-19T17:34:18.157Z,102213.84
2022-10-19T17:36:47.999Z,102204.94
2022-10-19T17:39:21.457Z,102193.38
2022-10-19T17:41:51.446Z,102203.91
2022-10-19T17:44:19.407Z,102205.63
2022-10-19T17:46:46.405Z,102204.69
2022-10-19T17:49:13.930Z,102204.56
2022-10-19T17:51:40.578Z,102207.19
2022-10-19T17:54:09.193Z,102207.06
2022-10-19T17:56:37.239Z,102192.78
2022-10-19T17:59:04.428Z,102197.97
2022-10-19T18:01:31.296Z,102196.16
2022-10-19T18:03:57.727Z,102207.44
2022-10-19T18:06:28.693Z,102210.03
2022-10-19T18:08:56.601Z,102219.66
2022-10-19T18:11:28.529Z,102233.72
2022-10-19T18:13:58.423Z,102230.22
2022-10-19T18:16:27.461Z,102227.47
2022-10-19T18:18:55.876Z,102227.47
2022-10-19T18:21:28.789Z,102228.19
2022-10-19T18:23:56.820Z,102214.81
2022-10-19T18:26:25.020Z,102230.72
2022-10-19T18:28:52.645Z,102226.34
2022-10-19T18:31:22.112Z,102236.94
2022-10-19T18:33:54.402Z,102243.97
2022-10-19T18:36:20.789Z,102236.06
2022-10-19T18:38:51.735Z,102228.06
2022-10-19T18:41:21.053Z,102209.47
2022-10-19T18:44:01.189Z,102205.03
2022-10-19T18:46:27.567Z,102177.56
2022-10-19T18:48:54.017Z,102171.38
2022-10-19T18:51:21.820Z,102173.00
2022-10-19T18:53:48.379Z,102164.06
2022-10-19T18:56:17.514Z,102160.38
2022-10-19T18:58:44.375Z,102170.75
2022-10-19T19:01:14.994Z,102170.63
2022-10-19T19:03:44.453Z,102165.31
2022-10-19T19:06:16.800Z,102160.91
2022-10-19T19:11:25.569Z,102167.88
2022-10-19T19:13:55.105Z,102157.28
2022-10-19T19:16:22.858Z,102157.13
2022-10-19T19:18:49.701Z,102149.16
2022-10-19T19:21:17.392Z,102145.53
2022-10-19T19:23:43.892Z,102133.16
2022-10-19T19:26:12.775Z,102127.84
2022-10-19T19:28:41.844Z,102131.13
2022-10-19T19:31:10.537Z,102127.53
2022-10-19T19:33:37.325Z,102127.38
2022-10-19T19:36:05.547Z,102118.50
2022-10-19T19:38:36.269Z,102103.47
2022-10-19T19:41:07.638Z,102096.38
2022-10-19T19:43:39.324Z,102090.13
2022-10-19T19:46:12.767Z,102085.69
2022-10-19T19:48:40.795Z,102080.41
2022-10-19T19:51:08.985Z,102061.06
2022-10-19T19:53:37.502Z,102064.50
2022-10-19T19:56:06.379Z,102059.16
2022-10-19T19:58:32.692Z,102053.81
2022-10-19T20:01:00.107Z,102061.59
2022-10-19T20:03:26.479Z,102057.16
2022-10-19T20:05:52.790Z,102061.47
2022-10-19T20:08:19.119Z,102054.41
2022-10-19T20:10:45.421Z,102042.06
2022-10-19T20:13:11.808Z,102048.13
2022-10-19T20:15:38.915Z,102034.91
2022-10-19T20:18:06.021Z,102033.09
2022-10-19T20:20:32.322Z,102038.47
2022-10-19T20:22:58.626Z,102037.59
2022-10-19T20:25:24.952Z,102049.00
2022-10-19T20:27:51.300Z,102046.38
2022-10-19T20:30:17.639Z,102040.25
2022-10-19T20:32:44.007Z,102023.53
2022-10-19T20:35:11.783Z,102023.47
2022-10-19T20:37:38.182Z,102023.38
2022-10-19T20:40:08.595Z,102013.59
2022-10-19T20:42:35.662Z,102010.84
2022-10-19T20:45:02.373Z,102001.09
2022-10-19T20:47:29.174Z,102001.78
2022-10-19T20:49:55.526Z,101988.44
2022-10-19T20:52:21.843Z,101983.09
2022-10-19T20:54:48.637Z,101978.66
2022-10-19T20:57:15.007Z,101990.88
2022-10-19T20:59:42.825Z,101984.72
2022-10-19T21:02:10.077Z,101986.47
2022-10-19T21:04:36.568Z,101989.84
2022-10-19T21:07:04.813Z,101981.84
2022-10-19T21:09:31.433Z,101986.22
2022-10-19T21:11:57.761Z,101975.69
2022-10-19T21:14:28.815Z,101978.25
2022-10-19T21:16:59.614Z,101979.97
2022-10-19T21:19:28.304Z,101984.25
2022-10-19T21:22:03.080Z,101984.25
2022-10-19T21:24:36.012Z,101980.63
2022-10-19T21:27:05.477Z,101992.03
2022-10-19T21:29:31.929Z,101991.19
2022-10-19T21:31:59.767Z,101983.25
2022-10-19T21:34:28.405Z,101975.44
2022-10-19T21:36:55.388Z,101980.69
2022-10-19T21:39:22.224Z,101973.69
2022-10-19T21:41:51.479Z,101974.56
2022-10-19T21:44:22.663Z,101970.19
2022-10-19T21:46:49.102Z,101971.06
2022-10-19T21:49:16.015Z,101968.41
2022-10-19T21:51:47.190Z,101968.41
2022-10-19T21:54:28.239Z,101957.03
2022-10-19T21:59:39.429Z,101954.16
2022-10-19T22:02:05.771Z,101955.00
2022-10-19T22:04:32.156Z,101955.81
2022-10-19T22:07:00.566Z,101951.28
2022-10-19T22:09:26.952Z,101955.69
2022-10-19T22:11:53.331Z,101947.00
2022-10-19T22:14:19.713Z,101934.72
2022-10-19T22:16:46.410Z,101927.75
2022-10-19T22:19:13.603Z,101927.66
2022-10-19T22:21:40.910Z,101931.16
2022-10-19T22:24:11.995Z,101926.72
2022-10-19T22:26:44.437Z,101922.28
2022-10-19T22:29:10.998Z,101920.38
2022-10-19T22:31:38.178Z,101909.75
2022-10-19T22:34:07.592Z,101911.34
2022-10-19T22:36:34.182Z,101898.09
2022-10-19T22:39:00.719Z,101898.91
2022-10-19T22:42:04.382Z,101895.31
2022-10-19T22:44:31.186Z,101898.69
2022-10-19T22:46:58.411Z,101896.13
2022-10-19T22:49:27.976Z,101889.13
2022-10-19T22:52:01.632Z,101886.34
2022-10-19T22:54:45.928Z,101877.47
2022-10-19T22:57:33.227Z,101862.38
2022-10-19T22:59:59.735Z,101865.06
2022-10-19T23:02:29.462Z,101862.44
2022-10-19T23:04:58.341Z,101862.34
2022-10-19T23:07:24.762Z,101857.81
2022-10-19T23:09:51.212Z,101857.75
2022-10-19T23:12:17.700Z,101841.06
2022-10-19T23:15:13.242Z,101853.44
2022-10-19T23:17:39.911Z,101849.94
2022-10-19T23:20:06.861Z,101856.88
2022-10-19T23:22:33.394Z,101851.72
2022-10-19T23:25:02.168Z,101835.06
2022-10-19T23:27:28.576Z,101832.38
2022-10-19T23:29:55.208Z,101824.41
2022-10-19T23:32:24.748Z,101819.06
2022-10-19T23:34:51.228Z,101815.41
2022-10-19T23:37:17.768Z,101820.59
2022-10-19T23:39:47.311Z,101820.66
2022-10-19T23:42:16.528Z,101818.84
2022-10-19T23:44:42.901Z,101827.47
2022-10-19T23:47:09.549Z,101815.22
2022-10-19T23:49:35.872Z,101812.59
2022-10-19T23:52:02.512Z,101802.91
2022-10-19T23:54:29.191Z,101803.69
2022-10-19T23:56:55.891Z,101792.31
2022-10-19T23:59:27.744Z,101780.06
